Huvudsida
METAR-TAF:

METAR-TAF

Flygplatser :

Florens-Peretolas flygplats

Florens, Italien

latitud: 43-48N, longitud: 011-12E, höjd: 40 m

Aktuellt väderrapport

Denna rapport gjordes för 19 minuter sedan, klockan 22:50 UTC
Vind 5 kt från ost/sydost
Temperatur 9°C
Fuktighet 81%
Tryck 1008 hPa
Sikt 10 km eller mer
Få moln på en höjd av 5000 ft

METAR: LIRQ 172250Z 11005KT 9999 FEW050 09/06 Q1008

Tid: 00:09 (23:09 UTC)

Väderprognos

Denna rapport gjordes för 6 timmar och 9 minuter sedan, klockan 17:00 UTC
Prognos gäller från 17 kl. 18 UTC till 18 kl. 18 UTC
Vind 5 kt varierande vindriktning
Sikt 10 km eller mer
Spridda moln på en höjd av 3000 ft
Temporärt
från 18 kl. 06 UTC till 18 kl. 18 UTC
Sikt: 4000 m
regnskurar

TAF: LIRQ 171700Z 1718/1818 VRB05KT 9999 SCT030 TEMPO 1806/1818 4000 SHRA

Aktuella väderrapporter och prognoser från 4000 flygplatser (METAR- och TAF-rapporter).

De tillgängliga stationerna syns som gula och röda prickar på kartan.

För musen över prickarna för att se namnen på stationerna.

Klicka sedan för att få väderrapporter och prognoser.

För att ändra kartan: Klicka på de gröna knapparna med ett svart kors på för att zooma in; den gröna knappen med ett streck på för att zooma ut; eller på de gröna pilarna för angränsande kartor.


METAR-TAF: